Time;durP1;ratioP1;P1;durP2;ratioP2;P2;SDS_P1;SDS_P2;PMS_P1;PMS_P2;Temp;Humidity;BMP_temperature;BMP_pressure;BME280_temperature;BME280_humidity;BME280_pressure;Samples;Min_cycle;Max_cycle;Signal;HPM_P1;HPM_P2
2024/02/20 00:00:06;;;;;;;51.17;24.77;;;;;;;4.80;81.82;94478.75;5006411;28;20022;-83
2024/02/20 00:02:32;;;;;;;64.03;26.00;;;;;;;4.89;81.24;94480.88;5005930;28;20014;-83
2024/02/20 00:04:58;;;;;;;56.00;25.63;;;;;;;4.91;80.80;94471.66;5005900;28;20034;-83
2024/02/20 00:07:24;;;;;;;52.58;24.88;;;;;;;4.93;80.31;94476.66;5005992;28;20072;-83
2024/02/20 00:09:49;;;;;;;57.58;25.38;;;;;;;4.94;80.45;94475.59;5005625;28;20049;-83
2024/02/20 00:12:15;;;;;;;57.33;24.52;;;;;;;4.92;80.36;94481.13;5005695;28;20034;-83
2024/02/20 00:14:41;;;;;;;59.55;26.23;;;;;;;4.89;79.89;94483.53;5005719;28;20023;-83
2024/02/20 00:17:07;;;;;;;56.75;24.92;;;;;;;4.84;80.42;94479.00;5005348;28;20133;-83
2024/02/20 00:19:33;;;;;;;55.92;25.80;;;;;;;4.94;80.11;94483.53;5005402;28;20057;-83
2024/02/20 00:21:58;;;;;;;56.05;23.17;;;;;;;4.92;80.57;94481.13;5005597;28;20026;-83
2024/02/20 00:24:24;;;;;;;61.17;24.20;;;;;;;4.98;80.97;94474.81;5005072;28;20268;-83
2024/02/20 00:26:49;;;;;;;49.78;23.05;;;;;;;5.06;80.53;94470.06;5005352;28;20344;-83
2024/02/20 00:29:14;;;;;;;56.20;24.02;;;;;;;5.13;80.19;94470.59;5005182;28;20216;-83
2024/02/20 00:31:40;;;;;;;53.88;23.08;;;;;;;5.19;79.87;94470.34;5004224;28;20068;-83
2024/02/20 00:34:05;;;;;;;57.83;24.73;;;;;;;5.21;79.81;94459.50;5004000;28;20082;-83
2024/02/20 00:36:31;;;;;;;58.35;23.42;;;;;;;5.31;79.22;94458.72;5003997;28;20022;-84
2024/02/20 00:38:56;;;;;;;49.85;22.50;;;;;;;5.34;79.19;94461.63;5003819;28;20057;-85
2024/02/20 00:41:22;;;;;;;57.20;24.35;;;;;;;5.40;79.03;94460.56;5005497;28;20085;-84
2024/02/20 00:43:48;;;;;;;50.20;22.52;;;;;;;5.47;78.74;94456.84;5005735;28;20061;-83
2024/02/20 00:46:21;;;;;;;53.80;23.98;;;;;;;5.49;78.77;94455.53;5004859;28;20033;-83
2024/02/20 00:48:50;;;;;;;52.05;23.40;;;;;;;5.54;77.76;94444.16;5005317;28;20034;-83
2024/02/20 00:51:17;;;;;;;53.85;23.98;;;;;;;5.58;77.15;94453.16;5005219;28;20022;-83
2024/02/20 00:53:43;;;;;;;55.15;24.02;;;;;;;5.60;76.92;94451.81;5004788;28;20364;-83
2024/02/20 00:56:09;;;;;;;54.53;24.92;;;;;;;5.54;77.05;94460.03;5005125;28;20026;-82
2024/02/20 00:58:34;;;;;;;49.33;21.83;;;;;;;5.57;76.76;94448.91;5005092;28;20343;-82
2024/02/20 01:01:00;;;;;;;59.13;24.38;;;;;;;5.55;77.05;94440.44;5004697;28;20026;-82
2024/02/20 01:03:26;;;;;;;55.63;25.75;;;;;;;5.51;77.29;94444.69;5004645;28;20050;-82
2024/02/20 01:05:51;;;;;;;58.38;23.80;;;;;;;5.42;77.39;94436.50;5004856;28;20080;-82
2024/02/20 01:08:17;;;;;;;52.88;22.83;;;;;;;5.36;77.41;94433.06;5004350;28;20324;-82
2024/02/20 01:10:43;;;;;;;51.67;23.70;;;;;;;5.31;77.72;94433.09;5005004;28;20312;-82
2024/02/20 01:13:08;;;;;;;54.80;23.48;;;;;;;5.27;77.93;94428.59;5003369;28;20045;-82
2024/02/20 01:15:34;;;;;;;60.50;24.55;;;;;;;5.22;78.14;94432.81;5004573;28;20018;-84
2024/02/20 01:18:00;;;;;;;53.78;24.17;;;;;;;5.18;78.38;94429.13;5004506;28;20030;-84
2024/02/20 01:20:27;;;;;;;59.05;24.52;;;;;;;5.12;78.71;94424.09;5004261;28;20026;-84
2024/02/20 01:22:53;;;;;;;55.03;23.13;;;;;;;5.05;78.95;94415.63;5004130;28;20022;-83
2024/02/20 01:25:19;;;;;;;59.65;25.83;;;;;;;5.02;79.06;94412.47;5004275;28;20022;-84
2024/02/20 01:27:45;;;;;;;52.80;24.77;;;;;;;4.99;78.97;94417.50;5004581;28;20033;-84
2024/02/20 01:30:11;;;;;;;56.58;24.90;;;;;;;4.97;79.07;94415.13;5003523;28;20225;-88
2024/02/20 01:32:36;;;;;;;53.75;24.95;;;;;;;4.93;79.23;94416.69;5003596;28;20105;-88
2024/02/20 01:35:02;;;;;;;59.58;25.67;;;;;;;4.93;79.42;94405.34;5004002;28;20094;-88
2024/02/20 01:37:28;;;;;;;63.40;25.65;;;;;;;4.95;79.31;94403.22;5004262;28;20347;-88
2024/02/20 01:39:54;;;;;;;53.55;23.23;;;;;;;4.95;79.43;94411.16;5004348;28;20030;-87
2024/02/20 01:42:20;;;;;;;55.70;24.80;;;;;;;4.95;79.51;94411.16;5004767;28;20052;-87
2024/02/20 01:44:45;;;;;;;56.72;24.55;;;;;;;4.94;79.55;94407.69;5004056;28;20026;-87
2024/02/20 01:47:11;;;;;;;58.95;23.95;;;;;;;4.87;79.60;94399.25;5004363;28;20097;-87
2024/02/20 01:49:37;;;;;;;61.88;27.98;;;;;;;4.78;79.79;94406.94;5004368;28;20053;-87
2024/02/20 01:52:06;;;;;;;60.72;25.58;;;;;;;4.72;79.95;94397.41;5004235;28;20032;-88
2024/02/20 01:54:33;;;;;;;56.45;25.90;;;;;;;4.68;80.29;94401.63;5004470;28;20148;-88
2024/02/20 01:56:58;;;;;;;63.17;25.98;;;;;;;4.68;80.45;94406.09;5002864;28;20026;-87
2024/02/20 01:59:24;;;;;;;54.92;23.42;;;;;;;4.69;80.57;94403.19;5003982;28;20029;-87
2024/02/20 02:01:50;;;;;;;57.05;25.27;;;;;;;4.65;80.83;94391.59;5003757;28;20052;-88
2024/02/20 02:04:15;;;;;;;61.95;25.85;;;;;;;4.71;80.39;94387.09;5003765;28;20022;-87
2024/02/20 02:06:41;;;;;;;60.25;24.83;;;;;;;4.73;80.45;94392.91;5004147;28;20026;-88
2024/02/20 02:09:06;;;;;;;54.17;24.30;;;;;;;4.76;80.43;94392.38;5005109;28;20325;-89
2024/02/20 02:11:39;;;;;;;58.45;23.80;;;;;;;4.70;80.46;94386.31;5003698;28;20022;-87
2024/02/20 02:14:04;;;;;;;56.35;23.90;;;;;;;4.70;80.47;94377.59;5004174;28;20126;-89
2024/02/20 02:16:30;;;;;;;59.28;25.38;;;;;;;4.68;80.65;94379.69;5003771;28;20022;-89
2024/02/20 02:18:55;;;;;;;62.67;25.60;;;;;;;4.65;80.75;94385.50;5007903;28;20051;-89
2024/02/20 02:21:20;;;;;;;52.00;23.92;;;;;;;4.63;81.03;94383.13;5003127;28;20428;-89
2024/02/20 02:23:46;;;;;;;52.42;22.70;;;;;;;4.59;80.93;94382.84;5004059;28;20033;-91
2024/02/20 02:26:11;;;;;;;54.70;23.40;;;;;;;4.66;81.08;94376.53;5003162;28;20029;-87
2024/02/20 02:28:38;;;;;;;54.67;23.80;;;;;;;4.73;81.04;94377.06;5003475;28;20049;-87
2024/02/20 02:31:03;;;;;;;54.17;23.63;;;;;;;4.81;80.93;94385.25;5004196;28;20056;-88
2024/02/20 02:33:30;;;;;;;57.67;25.85;;;;;;;4.87;80.91;94386.06;5002598;28;20023;-88
2024/02/20 02:35:59;;;;;;;55.85;25.95;;;;;;;4.89;80.70;94377.88;5003996;28;20105;-88
2024/02/20 02:38:24;;;;;;;50.30;22.95;;;;;;;4.95;80.70;94385.53;5003459;28;20046;-86
2024/02/20 02:40:50;;;;;;;58.55;23.77;;;;;;;5.00;80.22;94385.50;5004395;28;20026;-87
2024/02/20 02:43:17;;;;;;;59.10;26.70;;;;;;;5.03;79.88;94387.63;5007539;28;20065;-87
2024/02/20 02:45:42;;;;;;;62.80;24.35;;;;;;;5.06;79.43;94386.31;5006975;28;20089;-87
2024/02/20 02:48:08;;;;;;;56.90;24.80;;;;;;;5.11;79.21;94385.50;5007269;28;20309;-87
2024/02/20 02:50:34;;;;;;;46.88;22.00;;;;;;;5.15;79.09;94381.28;5007264;28;20031;-87
2024/02/20 02:52:59;;;;;;;59.10;22.92;;;;;;;5.12;79.06;94381.81;5007659;28;20033;-87
2024/02/20 02:55:25;;;;;;;59.00;24.65;;;;;;;5.09;78.98;94391.06;5007691;28;20033;-89
2024/02/20 02:57:50;;;;;;;55.00;25.08;;;;;;;5.07;79.03;94392.38;5007003;28;20049;-86
2024/02/20 03:00:16;;;;;;;48.53;23.55;;;;;;;5.12;78.50;94381.81;5007037;28;20281;-86
2024/02/20 03:02:42;;;;;;;57.78;23.58;;;;;;;5.10;78.35;94386.56;5006886;28;20026;-85
2024/02/20 03:05:08;;;;;;;55.55;24.88;;;;;;;5.11;79.05;94382.88;5006778;28;20030;-85
2024/02/20 03:07:33;;;;;;;51.58;23.55;;;;;;;5.17;78.91;94387.91;5007246;28;20041;-84
2024/02/20 03:09:59;;;;;;;61.65;24.70;;;;;;;5.21;78.62;94388.13;5007393;28;20022;-84
2024/02/20 03:12:25;;;;;;;51.60;23.55;;;;;;;5.19;78.11;94396.34;5005872;28;20022;-83
2024/02/20 03:14:54;;;;;;;53.65;23.75;;;;;;;5.10;78.12;94394.50;5005897;28;20018;-84
2024/02/20 03:17:19;;;;;;;53.78;23.10;;;;;;;4.98;78.60;94402.69;5006881;28;20026;-84
2024/02/20 03:19:45;;;;;;;57.55;24.00;;;;;;;4.83;79.31;94408.78;5005484;28;20044;-85
2024/02/20 03:22:10;;;;;;;65.38;24.85;;;;;;;4.76;79.94;94408.22;5006766;28;20036;-85
2024/02/20 03:24:36;;;;;;;64.55;27.02;;;;;;;4.67;80.21;94407.16;5006445;28;20205;-85
2024/02/20 03:27:06;;;;;;;57.95;24.95;;;;;;;4.58;80.85;94407.69;5006588;28;20030;-86
2024/02/20 03:29:31;;;;;;;58.15;24.48;;;;;;;4.55;80.83;94413.47;5006327;28;20109;-85
2024/02/20 03:31:59;;;;;;;63.08;25.00;;;;;;;4.55;80.77;94412.69;5006297;28;20034;-85
2024/02/20 03:34:24;;;;;;;57.03;25.52;;;;;;;4.51;80.81;94420.31;5006663;28;20210;-85
2024/02/20 03:36:50;;;;;;;67.07;26.70;;;;;;;4.54;80.60;94417.19;5006091;28;20045;-84
2024/02/20 03:39:15;;;;;;;58.17;24.38;;;;;;;4.55;80.78;94424.03;5006195;28;20045;-85
2024/02/20 03:41:41;;;;;;;64.30;26.67;;;;;;;4.58;80.64;94426.16;5006021;28;20030;-85
2024/02/20 03:44:06;;;;;;;59.97;26.00;;;;;;;4.61;80.37;94420.34;5006282;28;20042;-84
2024/02/20 03:46:31;;;;;;;58.50;26.25;;;;;;;4.68;80.04;94422.75;5005977;28;20029;-83
2024/02/20 03:48:57;;;;;;;62.20;26.23;;;;;;;4.65;79.52;94430.41;5006182;28;20100;-83
2024/02/20 03:51:22;;;;;;;55.03;24.48;;;;;;;4.56;80.05;94430.09;5005922;28;20030;-83
2024/02/20 03:53:48;;;;;;;59.35;25.88;;;;;;;4.47;80.57;94436.97;5004770;28;20066;-83
2024/02/20 03:56:13;;;;;;;55.30;24.48;;;;;;;4.40;81.39;94426.66;5006096;28;20049;-83
2024/02/20 03:58:39;;;;;;;55.80;25.45;;;;;;;4.34;82.12;94438.25;5006087;28;20248;-83
2024/02/20 04:01:06;;;;;;;53.65;22.48;;;;;;;4.25;82.63;94429.22;5006197;28;20320;-83
2024/02/20 04:03:32;;;;;;;50.00;22.17;;;;;;;4.21;83.44;94428.94;5005386;28;20335;-83
2024/02/20 04:05:58;;;;;;;57.70;25.75;;;;;;;4.19;83.38;94429.22;5005773;28;20053;-84
2024/02/20 04:08:23;;;;;;;52.30;21.92;;;;;;;4.06;83.96;94431.53;5005563;28;20033;-84
2024/02/20 04:10:49;;;;;;;50.08;23.27;;;;;;;4.06;84.16;94427.06;5005663;28;20038;-84
2024/02/20 04:13:14;;;;;;;52.05;21.88;;;;;;;4.14;84.21;94425.78;5005452;28;20022;-84
2024/02/20 04:15:40;;;;;;;44.10;19.70;;;;;;;4.15;83.41;94436.06;5005664;28;20022;-84
2024/02/20 04:18:05;;;;;;;49.75;21.73;;;;;;;4.21;83.42;94429.75;5006020;28;20216;-83
2024/02/20 04:20:31;;;;;;;50.53;21.08;;;;;;;4.28;83.31;94432.16;5005961;28;20018;-90
2024/02/20 04:22:56;;;;;;;48.47;21.92;;;;;;;4.33;83.18;94429.50;5006278;28;20029;-90
2024/02/20 04:25:22;;;;;;;50.35;21.40;;;;;;;4.38;82.75;94424.25;5006140;28;20049;-89
2024/02/20 04:27:48;;;;;;;49.25;23.90;;;;;;;4.48;82.76;94417.41;5008240;28;20022;-90
2024/02/20 04:30:13;;;;;;;52.28;22.15;;;;;;;4.59;82.62;94416.38;5005926;28;20097;-90
2024/02/20 04:32:39;;;;;;;55.22;22.88;;;;;;;4.70;82.38;94417.19;5006519;28;20018;-89
2024/02/20 04:35:06;;;;;;;50.20;22.02;;;;;;;4.81;82.07;94418.81;5006324;28;20031;-90
2024/02/20 04:37:31;;;;;;;46.85;20.48;;;;;;;4.92;80.87;94415.09;5006262;28;20025;-90
2024/02/20 04:39:56;;;;;;;50.97;21.73;;;;;;;4.99;80.49;94418.28;5006601;28;20054;-90
2024/02/20 04:42:22;;;;;;;46.63;21.88;;;;;;;5.07;80.11;94408.22;5005175;28;20084;-90
2024/02/20 04:44:51;;;;;;;51.05;22.73;;;;;;;5.13;79.74;94404.53;5004934;28;20213;-91
2024/02/20 04:47:22;;;;;;;50.38;23.35;;;;;;;5.20;79.02;94405.84;5006346;28;20305;-91
2024/02/20 04:49:47;;;;;;;47.97;21.97;;;;;;;5.23;78.82;94407.97;5004777;28;20026;-87
2024/02/20 04:52:13;;;;;;;47.67;22.38;;;;;;;5.26;78.69;94405.88;5005240;28;20279;-89
2024/02/20 04:54:38;;;;;;;52.55;23.52;;;;;;;5.30;78.44;94406.91;5006670;28;20117;-92
2024/02/20 04:57:04;;;;;;;51.45;21.63;;;;;;;5.34;78.18;94402.69;5006881;28;20022;-90
2024/02/20 04:59:29;;;;;;;47.90;23.13;;;;;;;5.34;78.10;94398.19;5006602;28;20022;-91
2024/02/20 05:01:55;;;;;;;53.83;24.02;;;;;;;5.37;77.96;94413.53;5005780;28;20026;-90
2024/02/20 05:04:21;;;;;;;51.15;23.92;;;;;;;5.41;77.76;94411.94;5005537;28;20086;-90
2024/02/20 05:06:46;;;;;;;48.90;22.38;;;;;;;5.42;77.43;94416.16;5005711;28;20060;-89
2024/02/20 05:09:13;;;;;;;51.25;23.60;;;;;;;5.46;77.29;94415.63;5005012;28;20029;-89
2024/02/20 05:11:39;;;;;;;54.38;22.42;;;;;;;5.49;77.33;94423.00;5005814;28;20026;-89
2024/02/20 05:14:04;;;;;;;55.05;23.83;;;;;;;5.52;76.96;94419.84;5005226;28;20028;-89
2024/02/20 05:16:30;;;;;;;54.53;22.50;;;;;;;5.56;76.60;94426.19;5005247;28;20209;-89
2024/02/20 05:18:55;;;;;;;58.33;23.63;;;;;;;5.57;76.42;94427.75;5005423;28;20144;-88
2024/02/20 05:21:20;;;;;;;53.28;22.90;;;;;;;5.54;76.50;94431.72;5004771;28;20170;-84
2024/02/20 05:23:46;;;;;;;54.63;22.88;;;;;;;5.54;76.33;94428.31;5004796;28;20073;-84
2024/02/20 05:26:11;;;;;;;53.17;23.27;;;;;;;5.52;76.14;94425.13;5004529;28;20030;-85
2024/02/20 05:28:37;;;;;;;54.50;23.98;;;;;;;5.50;75.78;94421.97;5004818;28;20375;-85
2024/02/20 05:31:29;;;;;;;59.45;23.95;;;;;;;5.48;75.99;94424.09;5003134;28;20022;-85
2024/02/20 05:33:59;;;;;;;52.83;23.98;;;;;;;5.42;76.10;94426.72;5004635;28;20022;-84
2024/02/20 05:36:25;;;;;;;49.08;24.42;;;;;;;5.45;76.22;94429.88;5004395;28;20069;-84
2024/02/20 05:38:52;;;;;;;55.00;24.15;;;;;;;5.42;76.37;94431.22;5005126;28;20022;-86
2024/02/20 05:41:18;;;;;;;56.70;25.05;;;;;;;5.38;76.38;94433.59;5004409;28;20093;-84
2024/02/20 05:43:43;;;;;;;52.70;24.45;;;;;;;5.39;76.52;94432.56;5004414;28;20221;-83
2024/02/20 05:46:09;;;;;;;62.90;26.40;;;;;;;5.41;76.72;94445.47;5004354;28;20022;-84
2024/02/20 05:48:36;;;;;;;57.05;25.00;;;;;;;5.43;76.51;94441.53;5003841;28;20030;-85
2024/02/20 05:51:01;;;;;;;51.58;23.42;;;;;;;5.46;76.26;94452.63;5003918;28;20022;-86
2024/02/20 05:53:26;;;;;;;54.03;23.92;;;;;;;5.43;76.22;94451.31;5003977;28;20121;-86
2024/02/20 05:55:52;;;;;;;52.63;24.85;;;;;;;5.38;76.04;94444.19;5003276;28;20030;-89
2024/02/20 05:58:17;;;;;;;54.45;24.38;;;;;;;5.25;76.76;94442.09;5004457;28;20312;-89
2024/02/20 06:00:43;;;;;;;62.13;26.27;;;;;;;5.28;76.76;94453.97;5003809;28;20309;-87
2024/02/20 06:03:08;;;;;;;58.33;26.15;;;;;;;5.25;76.88;94457.94;5003985;28;20048;-87
2024/02/20 06:05:33;;;;;;;64.53;27.38;;;;;;;5.24;76.84;94461.63;5003875;28;20072;-83
2024/02/20 06:08:01;;;;;;;64.20;28.98;;;;;;;5.22;77.12;94461.88;5003869;28;20025;-85
2024/02/20 06:10:26;;;;;;;67.18;30.55;;;;;;;5.22;77.14;94469.81;5003711;28;20023;-84
2024/02/20 06:12:52;;;;;;;76.28;32.88;;;;;;;5.16;77.23;94470.06;5004003;28;20026;-84
2024/02/20 06:15:17;;;;;;;74.07;31.60;;;;;;;5.14;77.51;94466.91;5003854;28;20336;-87
2024/02/20 06:17:43;;;;;;;83.47;34.13;;;;;;;5.17;77.74;94476.94;5007953;28;20022;-89
2024/02/20 06:20:09;;;;;;;78.75;35.60;;;;;;;5.16;77.81;94475.38;5008255;28;20042;-83
2024/02/20 06:22:34;;;;;;;83.25;34.45;;;;;;;5.17;77.91;94475.09;5007760;28;20026;-84
2024/02/20 06:24:59;;;;;;;73.32;31.98;;;;;;;5.18;77.63;94483.81;5007570;28;20094;-85
2024/02/20 06:27:25;;;;;;;75.80;33.05;;;;;;;5.14;77.88;94480.13;5006512;28;20022;-85
2024/02/20 06:29:51;;;;;;;77.55;33.70;;;;;;;5.11;77.65;94486.72;5007899;28;20326;-86
2024/02/20 06:32:16;;;;;;;83.72;32.90;;;;;;;5.12;77.86;94492.81;5007545;28;20046;-85
2024/02/20 06:34:43;;;;;;;79.60;33.50;;;;;;;5.10;77.84;94492.28;5007893;28;20026;-85
2024/02/20 06:37:09;;;;;;;77.57;30.77;;;;;;;5.00;77.72;94485.91;5006386;28;20391;-82
2024/02/20 06:39:34;;;;;;;81.85;32.00;;;;;;;4.99;78.43;94496.75;5007971;28;20015;-82
2024/02/20 06:42:00;;;;;;;74.38;32.65;;;;;;;5.01;78.79;94500.72;5007594;28;20041;-82
2024/02/20 06:44:25;;;;;;;75.85;30.48;;;;;;;5.04;78.60;94502.03;5007435;28;20269;-80
2024/02/20 06:46:50;;;;;;;59.85;29.73;;;;;;;5.11;78.52;94505.22;5006945;28;20065;-83
2024/02/20 06:49:16;;;;;;;70.95;29.95;;;;;;;5.13;77.97;94507.59;5005890;28;20034;-81
2024/02/20 06:51:41;;;;;;;70.82;29.45;;;;;;;5.17;78.17;94509.47;5006973;28;20053;-82
2024/02/20 06:54:07;;;;;;;70.03;27.67;;;;;;;5.26;78.00;94506.31;5007141;28;20042;-85
2024/02/20 06:56:32;;;;;;;67.38;28.85;;;;;;;5.31;76.94;94514.22;5007858;28;20022;-83
2024/02/20 06:58:58;;;;;;;69.47;28.40;;;;;;;5.28;76.26;94518.19;5007075;28;20030;-79
2024/02/20 07:01:23;;;;;;;69.80;28.95;;;;;;;5.25;76.33;94513.44;5006911;28;20023;-78
2024/02/20 07:03:52;;;;;;;67.43;27.33;;;;;;;5.21;76.67;94512.34;5006955;28;20037;-78
2024/02/20 07:06:18;;;;;;;77.13;29.05;;;;;;;5.20;76.29;94508.13;5007231;28;20145;-79
2024/02/20 07:08:43;;;;;;;65.82;29.90;;;;;;;5.16;76.55;94513.16;5007252;28;20038;-79
2024/02/20 07:11:10;;;;;;;72.13;28.50;;;;;;;5.16;76.54;94507.06;5006866;28;20093;-80
2024/02/20 07:13:38;;;;;;;69.03;28.50;;;;;;;5.19;76.69;94509.19;5007146;28;20030;-80
2024/02/20 07:16:05;;;;;;;70.00;29.73;;;;;;;5.26;76.36;94507.09;5007063;28;20041;-80
2024/02/20 07:18:30;;;;;;;67.60;30.05;;;;;;;5.34;76.38;94509.19;5007235;28;20052;-80
2024/02/20 07:20:56;;;;;;;77.45;30.75;;;;;;;5.48;76.53;94506.03;5006727;28;20045;-79
2024/02/20 07:23:21;;;;;;;63.95;28.08;;;;;;;5.52;76.14;94505.25;5006850;28;20022;-79
2024/02/20 07:25:46;;;;;;;69.03;29.50;;;;;;;5.62;75.29;94499.94;5006318;28;20033;-79
2024/02/20 07:28:12;;;;;;;62.60;28.27;;;;;;;5.62;75.42;94512.38;5005831;28;20053;-81
2024/02/20 07:30:38;;;;;;;74.15;30.27;;;;;;;5.61;75.27;94508.16;5006421;28;20077;-76
2024/02/20 07:33:03;;;;;;;63.55;28.33;;;;;;;5.65;75.31;94509.19;5006600;28;20027;-76
2024/02/20 07:35:29;;;;;;;78.57;30.10;;;;;;;5.74;75.04;94509.44;5006007;28;20056;-76
2024/02/20 07:37:55;;;;;;;70.38;27.50;;;;;;;5.77;74.45;94507.06;5005746;28;20030;-75
2024/02/20 07:40:21;;;;;;;70.18;30.35;;;;;;;5.79;74.17;94501.53;5004503;28;20083;-74
2024/02/20 07:42:46;;;;;;;70.55;31.23;;;;;;;5.76;74.41;94497.56;5004464;28;20030;-75
2024/02/20 07:45:11;;;;;;;75.15;29.30;;;;;;;5.80;74.79;94505.72;5005513;28;20049;-74
2024/02/20 07:47:37;;;;;;;74.07;29.63;;;;;;;5.77;74.73;94506.28;5005740;28;20018;-74
2024/02/20 07:50:06;;;;;;;69.75;28.08;;;;;;;5.70;75.01;94509.22;5005576;28;20054;-74
2024/02/20 07:52:31;;;;;;;68.50;28.63;;;;;;;5.73;75.00;94506.00;5004200;28;20046;-75
2024/02/20 07:54:57;;;;;;;70.72;29.25;;;;;;;5.76;74.01;94502.84;5005149;28;20235;-75
2024/02/20 07:57:22;;;;;;;68.53;27.85;;;;;;;5.80;74.36;94501.25;5005238;28;20034;-76
2024/02/20 07:59:48;;;;;;;62.92;25.90;;;;;;;5.78;73.86;94497.28;5005203;28;20257;-76
2024/02/20 08:02:14;;;;;;;60.47;26.95;;;;;;;5.73;74.09;94500.72;5005179;28;20101;-75
2024/02/20 08:04:40;;;;;;;59.95;26.13;;;;;;;5.73;73.71;94498.06;5004987;28;20034;-75
2024/02/20 08:07:06;;;;;;;55.65;25.10;;;;;;;5.85;73.36;94497.81;5005440;28;20151;-75
2024/02/20 08:09:31;;;;;;;55.95;21.50;;;;;;;5.94;72.56;94508.63;5005000;28;20061;-76
2024/02/20 08:11:57;;;;;;;60.45;25.38;;;;;;;5.92;72.21;94500.16;5003778;28;20034;-75
2024/02/20 08:14:24;;;;;;;56.75;23.42;;;;;;;5.97;71.85;94498.34;5004872;28;20042;-75
2024/02/20 08:16:50;;;;;;;49.22;22.65;;;;;;;6.02;72.07;94503.63;5005020;28;20061;-75
2024/02/20 08:19:15;;;;;;;54.30;22.98;;;;;;;6.00;72.03;94499.66;5004833;28;20284;-76
2024/02/20 08:21:41;;;;;;;49.20;18.85;;;;;;;6.01;71.04;94501.25;5004820;28;20025;-77
2024/02/20 08:24:06;;;;;;;42.88;20.55;;;;;;;6.00;70.42;94503.13;5004864;28;20090;-77
2024/02/20 08:26:32;;;;;;;47.95;19.10;;;;;;;6.05;70.23;94512.09;5004977;28;20128;-77
2024/02/20 08:28:58;;;;;;;40.65;17.67;;;;;;;6.01;70.27;94506.53;5004743;28;20026;-77
2024/02/20 08:31:23;;;;;;;41.40;18.08;;;;;;;6.03;70.23;94512.34;5004712;28;20029;-77
2024/02/20 08:33:49;;;;;;;39.80;19.48;;;;;;;6.00;70.65;94503.13;5004602;28;20213;-76
2024/02/20 08:36:17;;;;;;;57.13;20.75;;;;;;;6.11;70.62;94505.72;5004644;28;20037;-76
2024/02/20 08:38:43;;;;;;;51.70;21.20;;;;;;;6.14;70.73;94511.25;5004189;28;20026;-76
2024/02/20 08:41:09;;;;;;;52.45;20.77;;;;;;;6.28;70.24;94513.34;5004482;28;20057;-76
2024/02/20 08:43:35;;;;;;;58.30;23.13;;;;;;;6.43;69.80;94510.63;5004522;28;20325;-82
2024/02/20 08:46:00;;;;;;;43.90;21.45;;;;;;;6.52;70.35;94513.53;5004229;28;20030;-81
2024/02/20 08:48:26;;;;;;;47.42;20.33;;;;;;;6.65;69.54;94509.50;5004128;28;20026;-80
2024/02/20 08:50:52;;;;;;;41.83;21.02;;;;;;;6.78;69.30;94509.72;5004318;28;20053;-80
2024/02/20 08:53:17;;;;;;;41.40;20.42;;;;;;;6.87;68.93;94515.22;5003855;28;20391;-80
2024/02/20 08:55:43;;;;;;;42.30;19.30;;;;;;;6.99;67.72;94509.59;5004077;28;20022;-80
2024/02/20 08:58:08;;;;;;;38.58;17.95;;;;;;;7.06;67.03;94522.53;5003871;28;20030;-81
2024/02/20 09:00:34;;;;;;;48.47;19.95;;;;;;;7.11;67.21;94511.91;5004218;28;20026;-80
2024/02/20 09:03:00;;;;;;;47.83;19.52;;;;;;;7.18;66.73;94509.75;5003889;28;20079;-80
2024/02/20 09:05:25;;;;;;;43.15;19.63;;;;;;;7.25;65.97;94504.16;5003702;28;20065;-80
2024/02/20 09:07:51;;;;;;;42.33;20.40;;;;;;;7.34;66.05;94513.09;5003895;28;20050;-80
2024/02/20 09:10:16;;;;;;;47.90;20.73;;;;;;;7.48;65.53;94506.09;5003797;28;20026;-81
2024/02/20 09:12:41;;;;;;;44.42;20.08;;;;;;;7.54;64.92;94504.97;5003692;28;20026;-80
2024/02/20 09:15:07;;;;;;;57.65;20.67;;;;;;;7.68;65.63;94496.38;5003440;28;20029;-80
2024/02/20 09:17:33;;;;;;;46.00;20.83;;;;;;;7.94;65.34;94499.59;5003795;28;20049;-81
2024/02/20 09:19:58;;;;;;;42.13;19.45;;;;;;;8.23;63.61;94489.72;5003580;28;20022;-80
2024/02/20 09:22:26;;;;;;;47.40;19.52;;;;;;;8.37;61.29;94492.50;5003754;28;20387;-81
2024/02/20 09:24:52;;;;;;;33.45;13.98;;;;;;;8.44;60.14;94492.97;5003263;28;20022;-81
2024/02/20 09:27:17;;;;;;;31.73;16.45;;;;;;;8.61;58.57;94494.41;5003491;28;20144;-81
2024/02/20 09:29:42;;;;;;;36.30;15.23;;;;;;;8.77;58.20;94500.28;5003551;28;20018;-82
2024/02/20 09:32:09;;;;;;;18.85;8.85;;;;;;;8.89;49.59;94489.25;5003460;28;20018;-82
2024/02/20 09:34:34;;;;;;;13.15;7.78;;;;;;;8.84;43.78;94484.78;5003395;28;20052;-81
2024/02/20 09:36:59;;;;;;;15.30;7.63;;;;;;;8.88;45.37;94488.47;5003284;28;20215;-82
2024/02/20 09:39:25;;;;;;;20.80;9.18;;;;;;;8.98;44.60;94480.34;5003340;28;20348;-81
2024/02/20 09:41:52;;;;;;;44.33;16.17;;;;;;;9.10;55.06;94479.91;5003362;28;20032;-82
2024/02/20 09:44:18;;;;;;;42.72;19.30;;;;;;;9.14;56.68;94485.44;5003016;28;20022;-81
2024/02/20 09:46:51;;;;;;;44.33;18.38;;;;;;;9.10;57.01;94484.44;5003296;28;20018;-81
2024/02/20 09:49:18;;;;;;;39.67;16.77;;;;;;;8.97;56.25;94486.72;5003312;28;20037;-81
2024/02/20 09:51:46;;;;;;;51.22;18.33;;;;;;;8.91;57.83;94493.19;5002385;28;20132;-81
2024/02/20 09:54:13;;;;;;;35.95;17.65;;;;;;;8.91;57.94;94492.41;5002891;28;20050;-80
2024/02/20 09:56:41;;;;;;;37.47;16.85;;;;;;;8.86;57.56;94495.16;5003005;28;20032;-81
2024/02/20 09:59:07;;;;;;;36.72;17.27;;;;;;;8.88;57.78;94487.69;5003125;28;20050;-81
2024/02/20 10:01:33;;;;;;;33.53;16.33;;;;;;;8.92;57.93;94483.38;5001877;28;20033;-80
2024/02/20 10:04:02;;;;;;;36.45;16.90;;;;;;;8.97;57.70;94476.09;5002657;28;20053;-80
2024/02/20 10:06:29;;;;;;;29.80;14.32;;;;;;;9.03;54.83;94479.47;5002986;28;20108;-80
2024/02/20 10:08:56;;;;;;;32.45;16.40;;;;;;;9.01;56.26;94482.41;5002886;28;20264;-80
2024/02/20 10:11:21;;;;;;;34.35;15.02;;;;;;;8.99;56.38;94479.25;5002764;28;20030;-80
2024/02/20 10:13:51;;;;;;;36.78;16.30;;;;;;;9.08;55.94;94478.59;5002812;28;20391;-81
2024/02/20 10:16:20;;;;;;;35.05;15.27;;;;;;;9.14;55.95;94466.81;5002758;28;20320;-81
2024/02/20 10:18:58;;;;;;;40.70;16.05;;;;;;;9.23;55.96;94465.09;5002886;28;20022;-82
2024/02/20 10:21:27;;;;;;;31.30;14.00;;;;;;;9.28;53.96;94462.38;5002642;28;20030;-81
2024/02/20 10:24:06;;;;;;;32.17;14.80;;;;;;;9.26;54.59;94463.72;5002704;28;20022;-77
2024/02/20 10:26:37;;;;;;;30.55;14.52;;;;;;;9.22;54.88;94459.00;5002616;28;20031;-73
2024/02/20 10:29:04;;;;;;;31.13;14.18;;;;;;;9.00;54.22;94461.44;5001906;28;20031;-74
2024/02/20 10:31:32;;;;;;;28.80;14.25;;;;;;;9.22;53.30;94456.34;5003021;28;20026;-73
2024/02/20 10:33:58;;;;;;;26.55;14.75;;;;;;;9.23;52.98;94457.13;5001373;28;20037;-73
2024/02/20 10:36:25;;;;;;;29.90;14.15;;;;;;;9.17;52.74;94458.28;5002731;28;20034;-73
2024/02/20 10:39:04;;;;;;;33.88;14.93;;;;;;;9.28;52.19;94461.56;5002903;28;20022;-73
2024/02/20 10:41:30;;;;;;;25.92;12.30;;;;;;;9.22;50.74;94452.88;5001724;28;20046;-73
2024/02/20 10:43:57;;;;;;;31.17;13.02;;;;;;;9.29;51.42;94440.00;5001936;28;20034;-73
2024/02/20 10:46:25;;;;;;;19.17;9.93;;;;;;;9.47;47.76;94445.59;5001166;28;20097;-72
2024/02/20 10:48:54;;;;;;;23.30;11.20;;;;;;;9.59;47.34;94436.06;5002555;28;20040;-73
2024/02/20 10:51:20;;;;;;;20.77;10.52;;;;;;;9.79;47.80;94434.91;5002252;28;20049;-73
2024/02/20 10:53:48;;;;;;;20.67;10.45;;;;;;;10.06;46.47;94430.69;5002340;28;20050;-72
2024/02/20 10:56:15;;;;;;;16.85;8.95;;;;;;;10.28;44.73;94429.22;5002381;28;20030;-72
2024/02/20 10:58:42;;;;;;;32.45;10.10;;;;;;;10.36;42.23;94434.69;5002674;28;20026;-73
2024/02/20 11:01:13;;;;;;;21.55;9.48;;;;;;;10.28;41.80;94427.34;5002775;28;20054;-73
2024/02/20 11:03:40;;;;;;;14.35;8.05;;;;;;;10.10;40.35;94421.03;5006357;28;20265;-73
2024/02/20 11:06:06;;;;;;;15.55;8.15;;;;;;;9.90;40.51;94429.41;5006581;28;20105;-73
2024/02/20 11:08:31;;;;;;;15.88;7.03;;;;;;;9.74;40.94;94419.00;5006163;28;20101;-73
2024/02/20 11:11:13;;;;;;;23.17;8.85;;;;;;;9.61;42.59;94419.78;5006215;28;20077;-73
2024/02/20 11:13:41;;;;;;;13.95;8.02;;;;;;;9.46;41.74;94417.38;5006343;28;20317;-73
2024/02/20 11:16:14;;;;;;;16.20;7.97;;;;;;;9.38;42.00;94414.31;5006313;28;20022;-73
2024/02/20 11:18:55;;;;;;;28.52;9.23;;;;;;;9.37;43.07;94420.72;5006223;28;20018;-73
2024/02/20 11:21:29;;;;;;;20.13;8.40;;;;;;;9.36;42.91;94428.97;5006111;28;20026;-72